sensor_id;sensor_type;location;lat;lon;timestamp;temperature;humidity
6538;DHT22;3302;52.508;13.454;2024-02-26T00:01:41;5.50;99.90
6538;DHT22;3302;52.508;13.454;2024-02-26T00:04:09;5.50;99.90
6538;DHT22;3302;52.508;13.454;2024-02-26T00:06:35;5.50;99.90
6538;DHT22;3302;52.508;13.454;2024-02-26T00:09:02;5.50;99.90
6538;DHT22;3302;52.508;13.454;2024-02-26T00:11:31;5.40;99.90
6538;DHT22;3302;52.508;13.454;2024-02-26T00:13:57;5.40;99.90
6538;DHT22;3302;52.508;13.454;2024-02-26T00:16:24;5.40;99.90
6538;DHT22;3302;52.508;13.454;2024-02-26T00:18:49;5.30;99.90
6538;DHT22;3302;52.508;13.454;2024-02-26T00:21:15;5.30;99.90
6538;DHT22;3302;52.508;13.454;2024-02-26T00:23:41;5.30;99.90
6538;DHT22;3302;52.508;13.454;2024-02-26T00:26:07;5.30;99.90
6538;DHT22;3302;52.508;13.454;2024-02-26T00:28:33;5.00;99.90
6538;DHT22;3302;52.508;13.454;2024-02-26T00:30:59;4.90;99.90
6538;DHT22;3302;52.508;13.454;2024-02-26T00:33:25;4.70;99.90
6538;DHT22;3302;52.508;13.454;2024-02-26T00:35:51;4.70;99.90
6538;DHT22;3302;52.508;13.454;2024-02-26T00:38:17;4.80;99.90
6538;DHT22;3302;52.508;13.454;2024-02-26T00:40:42;4.70;99.90
6538;DHT22;3302;52.508;13.454;2024-02-26T00:43:08;4.50;99.90
6538;DHT22;3302;52.508;13.454;2024-02-26T00:45:34;4.60;99.90
6538;DHT22;3302;52.508;13.454;2024-02-26T00:48:00;4.80;99.90
6538;DHT22;3302;52.508;13.454;2024-02-26T00:50:30;4.90;99.90
6538;DHT22;3302;52.508;13.454;2024-02-26T00:52:56;4.90;99.90
6538;DHT22;3302;52.508;13.454;2024-02-26T00:55:22;5.00;99.90
6538;DHT22;3302;52.508;13.454;2024-02-26T00:57:48;5.00;99.90
6538;DHT22;3302;52.508;13.454;2024-02-26T01:00:14;5.10;99.90
6538;DHT22;3302;52.508;13.454;2024-02-26T01:02:40;5.10;99.90
6538;DHT22;3302;52.508;13.454;2024-02-26T01:05:08;5.00;99.90
6538;DHT22;3302;52.508;13.454;2024-02-26T01:07:35;5.00;99.90
6538;DHT22;3302;52.508;13.454;2024-02-26T01:10:02;4.90;99.90
6538;DHT22;3302;52.508;13.454;2024-02-26T01:12:28;5.00;99.90
6538;DHT22;3302;52.508;13.454;2024-02-26T01:14:54;5.00;99.90
6538;DHT22;3302;52.508;13.454;2024-02-26T01:17:20;5.00;99.90
6538;DHT22;3302;52.508;13.454;2024-02-26T01:19:46;4.90;99.90
6538;DHT22;3302;52.508;13.454;2024-02-26T01:22:11;4.80;99.90
6538;DHT22;3302;52.508;13.454;2024-02-26T01:24:37;4.60;99.90
6538;DHT22;3302;52.508;13.454;2024-02-26T01:27:03;4.50;99.90
6538;DHT22;3302;52.508;13.454;2024-02-26T01:29:29;4.60;99.90
6538;DHT22;3302;52.508;13.454;2024-02-26T01:31:55;4.60;99.90
6538;DHT22;3302;52.508;13.454;2024-02-26T01:34:21;4.70;99.90
6538;DHT22;3302;52.508;13.454;2024-02-26T01:36:47;4.70;99.90
6538;DHT22;3302;52.508;13.454;2024-02-26T01:39:13;4.70;99.90
6538;DHT22;3302;52.508;13.454;2024-02-26T01:41:40;4.80;99.90
6538;DHT22;3302;52.508;13.454;2024-02-26T01:44:06;4.80;99.90
6538;DHT22;3302;52.508;13.454;2024-02-26T01:46:34;4.80;99.90
6538;DHT22;3302;52.508;13.454;2024-02-26T01:49:02;4.80;99.90
6538;DHT22;3302;52.508;13.454;2024-02-26T01:51:29;4.80;99.90
6538;DHT22;3302;52.508;13.454;2024-02-26T01:53:57;4.80;99.90
6538;DHT22;3302;52.508;13.454;2024-02-26T01:56:23;4.80;99.90
6538;DHT22;3302;52.508;13.454;2024-02-26T01:58:53;4.70;99.90
6538;DHT22;3302;52.508;13.454;2024-02-26T02:01:21;4.70;99.90
6538;DHT22;3302;52.508;13.454;2024-02-26T02:03:48;4.70;99.90
6538;DHT22;3302;52.508;13.454;2024-02-26T02:06:14;4.70;99.90
6538;DHT22;3302;52.508;13.454;2024-02-26T02:08:40;4.70;99.90
6538;DHT22;3302;52.508;13.454;2024-02-26T02:11:06;4.60;99.90
6538;DHT22;3302;52.508;13.454;2024-02-26T02:13:33;4.60;99.90
6538;DHT22;3302;52.508;13.454;2024-02-26T02:15:58;4.50;99.90
6538;DHT22;3302;52.508;13.454;2024-02-26T02:18:24;4.50;99.90
6538;DHT22;3302;52.508;13.454;2024-02-26T02:20:50;4.40;99.90
6538;DHT22;3302;52.508;13.454;2024-02-26T02:23:16;4.40;99.90
6538;DHT22;3302;52.508;13.454;2024-02-26T02:25:42;4.20;99.90
6538;DHT22;3302;52.508;13.454;2024-02-26T02:28:08;4.30;99.90
6538;DHT22;3302;52.508;13.454;2024-02-26T02:30:34;4.20;99.90
6538;DHT22;3302;52.508;13.454;2024-02-26T02:33:01;4.20;99.90
6538;DHT22;3302;52.508;13.454;2024-02-26T02:35:27;4.30;99.90
6538;DHT22;3302;52.508;13.454;2024-02-26T02:37:53;4.20;99.90
6538;DHT22;3302;52.508;13.454;2024-02-26T02:40:19;4.20;99.90
6538;DHT22;3302;52.508;13.454;2024-02-26T02:42:45;4.10;99.90
6538;DHT22;3302;52.508;13.454;2024-02-26T02:45:10;4.00;99.90
6538;DHT22;3302;52.508;13.454;2024-02-26T02:47:36;3.80;99.90
6538;DHT22;3302;52.508;13.454;2024-02-26T02:50:04;3.70;99.90
6538;DHT22;3302;52.508;13.454;2024-02-26T02:52:29;3.60;99.90
6538;DHT22;3302;52.508;13.454;2024-02-26T02:54:55;3.60;99.90
6538;DHT22;3302;52.508;13.454;2024-02-26T02:57:21;3.70;99.90
6538;DHT22;3302;52.508;13.454;2024-02-26T02:59:47;3.70;99.90
6538;DHT22;3302;52.508;13.454;2024-02-26T03:02:13;3.80;99.90
6538;DHT22;3302;52.508;13.454;2024-02-26T03:04:38;3.80;99.90
6538;DHT22;3302;52.508;13.454;2024-02-26T03:07:04;3.80;99.90
6538;DHT22;3302;52.508;13.454;2024-02-26T03:09:30;3.70;99.90
6538;DHT22;3302;52.508;13.454;2024-02-26T03:11:56;3.60;99.90
6538;DHT22;3302;52.508;13.454;2024-02-26T03:14:22;3.60;99.90
6538;DHT22;3302;52.508;13.454;2024-02-26T03:16:48;3.60;99.90
6538;DHT22;3302;52.508;13.454;2024-02-26T03:19:16;3.60;99.90
6538;DHT22;3302;52.508;13.454;2024-02-26T03:21:42;3.50;99.90
6538;DHT22;3302;52.508;13.454;2024-02-26T03:24:08;3.60;99.90
6538;DHT22;3302;52.508;13.454;2024-02-26T03:26:36;3.60;99.90
6538;DHT22;3302;52.508;13.454;2024-02-26T03:29:02;3.60;99.90
6538;DHT22;3302;52.508;13.454;2024-02-26T03:31:28;3.50;99.90
6538;DHT22;3302;52.508;13.454;2024-02-26T03:33:54;3.50;99.90
6538;DHT22;3302;52.508;13.454;2024-02-26T03:36:20;3.50;99.90
6538;DHT22;3302;52.508;13.454;2024-02-26T03:38:47;3.60;99.90
6538;DHT22;3302;52.508;13.454;2024-02-26T03:41:13;3.60;99.90
6538;DHT22;3302;52.508;13.454;2024-02-26T03:43:39;3.60;99.90
6538;DHT22;3302;52.508;13.454;2024-02-26T03:46:09;3.70;99.90
6538;DHT22;3302;52.508;13.454;2024-02-26T03:48:36;3.70;99.90
6538;DHT22;3302;52.508;13.454;2024-02-26T03:51:04;3.70;99.90
6538;DHT22;3302;52.508;13.454;2024-02-26T03:53:30;3.70;99.90
6538;DHT22;3302;52.508;13.454;2024-02-26T03:55:55;3.70;99.90
6538;DHT22;3302;52.508;13.454;2024-02-26T03:58:21;3.70;99.90
6538;DHT22;3302;52.508;13.454;2024-02-26T04:00:47;3.70;99.90
6538;DHT22;3302;52.508;13.454;2024-02-26T04:03:13;3.70;99.90
6538;DHT22;3302;52.508;13.454;2024-02-26T04:05:39;3.70;99.90
6538;DHT22;3302;52.508;13.454;2024-02-26T04:08:05;3.60;99.90
6538;DHT22;3302;52.508;13.454;2024-02-26T04:10:33;3.70;99.90
6538;DHT22;3302;52.508;13.454;2024-02-26T04:13:05;3.70;99.90
6538;DHT22;3302;52.508;13.454;2024-02-26T04:15:32;3.70;99.90
6538;DHT22;3302;52.508;13.454;2024-02-26T04:17:58;3.80;99.90
6538;DHT22;3302;52.508;13.454;2024-02-26T04:20:24;3.70;99.90
6538;DHT22;3302;52.508;13.454;2024-02-26T04:22:49;3.60;99.90
6538;DHT22;3302;52.508;13.454;2024-02-26T04:25:15;3.70;99.90
6538;DHT22;3302;52.508;13.454;2024-02-26T04:27:41;3.70;99.90
6538;DHT22;3302;52.508;13.454;2024-02-26T04:30:07;3.80;99.90
6538;DHT22;3302;52.508;13.454;2024-02-26T04:32:34;3.90;99.90
6538;DHT22;3302;52.508;13.454;2024-02-26T04:35:01;4.00;99.90
6538;DHT22;3302;52.508;13.454;2024-02-26T04:37:28;4.00;99.90
6538;DHT22;3302;52.508;13.454;2024-02-26T04:40:00;4.00;99.90
6538;DHT22;3302;52.508;13.454;2024-02-26T04:42:26;4.00;99.90
6538;DHT22;3302;52.508;13.454;2024-02-26T04:44:53;3.90;99.90
6538;DHT22;3302;52.508;13.454;2024-02-26T04:47:19;3.80;99.90
6538;DHT22;3302;52.508;13.454;2024-02-26T04:49:49;3.80;99.90
6538;DHT22;3302;52.508;13.454;2024-02-26T04:52:15;3.80;99.90
6538;DHT22;3302;52.508;13.454;2024-02-26T04:54:40;3.80;99.90
6538;DHT22;3302;52.508;13.454;2024-02-26T04:57:06;3.80;99.90
6538;DHT22;3302;52.508;13.454;2024-02-26T04:59:32;3.90;99.90
6538;DHT22;3302;52.508;13.454;2024-02-26T05:01:58;3.90;99.90
6538;DHT22;3302;52.508;13.454;2024-02-26T05:04:24;3.90;99.90
6538;DHT22;3302;52.508;13.454;2024-02-26T05:06:49;3.90;99.90
6538;DHT22;3302;52.508;13.454;2024-02-26T05:09:15;3.90;99.90
6538;DHT22;3302;52.508;13.454;2024-02-26T05:11:41;3.90;99.90
6538;DHT22;3302;52.508;13.454;2024-02-26T05:14:08;3.90;99.90
6538;DHT22;3302;52.508;13.454;2024-02-26T05:16:33;3.80;99.90
6538;DHT22;3302;52.508;13.454;2024-02-26T05:18:59;3.90;99.90
6538;DHT22;3302;52.508;13.454;2024-02-26T05:21:25;3.90;99.90
6538;DHT22;3302;52.508;13.454;2024-02-26T05:23:51;3.90;99.90
6538;DHT22;3302;52.508;13.454;2024-02-26T05:26:23;4.00;99.90
6538;DHT22;3302;52.508;13.454;2024-02-26T05:28:49;3.90;99.90
6538;DHT22;3302;52.508;13.454;2024-02-26T05:31:15;4.00;99.90
6538;DHT22;3302;52.508;13.454;2024-02-26T05:33:42;4.00;99.90
6538;DHT22;3302;52.508;13.454;2024-02-26T05:36:08;4.00;99.90
6538;DHT22;3302;52.508;13.454;2024-02-26T05:38:33;3.90;99.90
6538;DHT22;3302;52.508;13.454;2024-02-26T05:41:00;3.90;99.90
6538;DHT22;3302;52.508;13.454;2024-02-26T05:43:26;4.00;99.90
6538;DHT22;3302;52.508;13.454;2024-02-26T05:45:52;3.90;99.90
6538;DHT22;3302;52.508;13.454;2024-02-26T05:48:20;3.90;99.90
6538;DHT22;3302;52.508;13.454;2024-02-26T05:50:46;3.90;99.90
6538;DHT22;3302;52.508;13.454;2024-02-26T05:53:12;3.90;99.90
6538;DHT22;3302;52.508;13.454;2024-02-26T05:55:38;4.00;99.90
6538;DHT22;3302;52.508;13.454;2024-02-26T05:58:04;3.90;99.90
6538;DHT22;3302;52.508;13.454;2024-02-26T06:00:30;3.90;99.90
6538;DHT22;3302;52.508;13.454;2024-02-26T06:02:56;3.90;99.90
6538;DHT22;3302;52.508;13.454;2024-02-26T06:05:22;3.90;99.90
6538;DHT22;3302;52.508;13.454;2024-02-26T06:07:47;3.80;99.90
6538;DHT22;3302;52.508;13.454;2024-02-26T06:10:13;3.80;99.90
6538;DHT22;3302;52.508;13.454;2024-02-26T06:12:39;3.90;99.90
6538;DHT22;3302;52.508;13.454;2024-02-26T06:15:06;3.80;99.90
6538;DHT22;3302;52.508;13.454;2024-02-26T06:17:32;3.80;99.90
6538;DHT22;3302;52.508;13.454;2024-02-26T06:19:59;3.80;99.90
6538;DHT22;3302;52.508;13.454;2024-02-26T06:22:25;3.80;99.90
6538;DHT22;3302;52.508;13.454;2024-02-26T06:24:51;3.90;99.90
6538;DHT22;3302;52.508;13.454;2024-02-26T06:27:17;3.80;99.90
6538;DHT22;3302;52.508;13.454;2024-02-26T06:29:43;3.80;99.90
6538;DHT22;3302;52.508;13.454;2024-02-26T06:32:09;3.90;99.90
6538;DHT22;3302;52.508;13.454;2024-02-26T06:34:35;3.90;99.90
6538;DHT22;3302;52.508;13.454;2024-02-26T06:37:01;3.90;99.90
6538;DHT22;3302;52.508;13.454;2024-02-26T06:39:27;4.00;99.90
6538;DHT22;3302;52.508;13.454;2024-02-26T06:41:52;4.00;99.90
6538;DHT22;3302;52.508;13.454;2024-02-26T06:44:26;4.00;99.90
6538;DHT22;3302;52.508;13.454;2024-02-26T06:46:52;4.00;99.90
6538;DHT22;3302;52.508;13.454;2024-02-26T06:49:18;4.10;99.90
6538;DHT22;3302;52.508;13.454;2024-02-26T06:51:43;4.20;99.90
6538;DHT22;3302;52.508;13.454;2024-02-26T06:54:09;4.20;99.90
6538;DHT22;3302;52.508;13.454;2024-02-26T06:56:35;4.20;99.90
6538;DHT22;3302;52.508;13.454;2024-02-26T06:59:02;4.20;99.90
6538;DHT22;3302;52.508;13.454;2024-02-26T07:01:28;4.30;99.90
6538;DHT22;3302;52.508;13.454;2024-02-26T07:03:53;4.30;99.90
6538;DHT22;3302;52.508;13.454;2024-02-26T07:06:19;4.30;99.90
6538;DHT22;3302;52.508;13.454;2024-02-26T07:08:45;4.30;99.90
6538;DHT22;3302;52.508;13.454;2024-02-26T07:11:11;4.40;99.90
6538;DHT22;3302;52.508;13.454;2024-02-26T07:13:36;4.40;99.90
6538;DHT22;3302;52.508;13.454;2024-02-26T07:16:03;4.50;99.90
6538;DHT22;3302;52.508;13.454;2024-02-26T07:18:29;4.50;99.90
6538;DHT22;3302;52.508;13.454;2024-02-26T07:20:55;4.40;99.90
6538;DHT22;3302;52.508;13.454;2024-02-26T07:23:21;4.40;99.90
6538;DHT22;3302;52.508;13.454;2024-02-26T07:25:47;4.50;99.90
6538;DHT22;3302;52.508;13.454;2024-02-26T07:28:14;4.60;99.90
6538;DHT22;3302;52.508;13.454;2024-02-26T07:30:40;4.50;99.90
6538;DHT22;3302;52.508;13.454;2024-02-26T07:33:06;4.60;99.90
6538;DHT22;3302;52.508;13.454;2024-02-26T07:35:33;4.60;99.90
6538;DHT22;3302;52.508;13.454;2024-02-26T07:37:59;4.70;99.90
6538;DHT22;3302;52.508;13.454;2024-02-26T07:40:25;4.80;99.90
6538;DHT22;3302;52.508;13.454;2024-02-26T07:42:51;4.80;99.90
6538;DHT22;3302;52.508;13.454;2024-02-26T07:45:16;4.80;99.90
6538;DHT22;3302;52.508;13.454;2024-02-26T07:47:46;5.00;99.90
6538;DHT22;3302;52.508;13.454;2024-02-26T07:50:12;4.90;99.90
6538;DHT22;3302;52.508;13.454;2024-02-26T07:52:38;5.00;99.90
6538;DHT22;3302;52.508;13.454;2024-02-26T07:55:05;5.10;99.90
6538;DHT22;3302;52.508;13.454;2024-02-26T07:57:32;5.20;99.90
6538;DHT22;3302;52.508;13.454;2024-02-26T07:59:59;5.20;99.90
6538;DHT22;3302;52.508;13.454;2024-02-26T08:02:25;5.30;99.90
6538;DHT22;3302;52.508;13.454;2024-02-26T08:04:51;5.30;99.90
6538;DHT22;3302;52.508;13.454;2024-02-26T08:07:17;5.30;99.90
6538;DHT22;3302;52.508;13.454;2024-02-26T08:09:43;5.40;99.90
6538;DHT22;3302;52.508;13.454;2024-02-26T08:12:09;5.50;99.90
6538;DHT22;3302;52.508;13.454;2024-02-26T08:14:34;5.60;99.90
6538;DHT22;3302;52.508;13.454;2024-02-26T08:17:00;5.70;99.90
6538;DHT22;3302;52.508;13.454;2024-02-26T08:19:26;5.70;99.90
6538;DHT22;3302;52.508;13.454;2024-02-26T08:21:52;5.70;99.90
6538;DHT22;3302;52.508;13.454;2024-02-26T08:24:18;5.80;99.90
6538;DHT22;3302;52.508;13.454;2024-02-26T08:26:44;5.90;99.90
6538;DHT22;3302;52.508;13.454;2024-02-26T08:29:10;5.90;99.90
6538;DHT22;3302;52.508;13.454;2024-02-26T08:31:36;5.90;99.90
6538;DHT22;3302;52.508;13.454;2024-02-26T08:34:04;6.00;99.90
6538;DHT22;3302;52.508;13.454;2024-02-26T08:36:32;6.10;99.90
6538;DHT22;3302;52.508;13.454;2024-02-26T08:38:58;6.30;99.90
6538;DHT22;3302;52.508;13.454;2024-02-26T08:41:24;6.50;99.90
6538;DHT22;3302;52.508;13.454;2024-02-26T08:43:50;6.60;99.90
6538;DHT22;3302;52.508;13.454;2024-02-26T08:46:16;6.60;99.90
6538;DHT22;3302;52.508;13.454;2024-02-26T08:48:42;6.70;99.90
6538;DHT22;3302;52.508;13.454;2024-02-26T08:51:08;6.70;99.90
6538;DHT22;3302;52.508;13.454;2024-02-26T08:53:35;6.70;99.90
6538;DHT22;3302;52.508;13.454;2024-02-26T08:56:01;6.90;99.90
6538;DHT22;3302;52.508;13.454;2024-02-26T08:58:28;6.90;99.90
6538;DHT22;3302;52.508;13.454;2024-02-26T09:00:54;7.00;99.90
6538;DHT22;3302;52.508;13.454;2024-02-26T09:03:20;7.00;99.90
6538;DHT22;3302;52.508;13.454;2024-02-26T09:05:46;7.00;99.90
6538;DHT22;3302;52.508;13.454;2024-02-26T09:08:12;7.10;99.90
6538;DHT22;3302;52.508;13.454;2024-02-26T09:10:38;7.30;99.90
6538;DHT22;3302;52.508;13.454;2024-02-26T09:13:04;7.30;99.90
6538;DHT22;3302;52.508;13.454;2024-02-26T09:15:30;7.40;99.90
6538;DHT22;3302;52.508;13.454;2024-02-26T09:17:57;7.50;99.90
6538;DHT22;3302;52.508;13.454;2024-02-26T09:20:22;7.60;99.90
6538;DHT22;3302;52.508;13.454;2024-02-26T09:22:49;7.40;99.90
6538;DHT22;3302;52.508;13.454;2024-02-26T09:25:19;7.40;99.90
6538;DHT22;3302;52.508;13.454;2024-02-26T09:27:46;7.50;99.90
6538;DHT22;3302;52.508;13.454;2024-02-26T09:30:13;7.50;99.90
6538;DHT22;3302;52.508;13.454;2024-02-26T09:32:39;7.70;99.90
6538;DHT22;3302;52.508;13.454;2024-02-26T09:35:06;7.70;99.90
6538;DHT22;3302;52.508;13.454;2024-02-26T09:37:33;7.70;99.90
6538;DHT22;3302;52.508;13.454;2024-02-26T09:39:59;7.60;99.90
6538;DHT22;3302;52.508;13.454;2024-02-26T09:42:26;7.80;99.90
6538;DHT22;3302;52.508;13.454;2024-02-26T09:44:54;7.80;99.90
6538;DHT22;3302;52.508;13.454;2024-02-26T09:47:23;7.90;99.90
6538;DHT22;3302;52.508;13.454;2024-02-26T09:49:53;8.10;99.90
6538;DHT22;3302;52.508;13.454;2024-02-26T09:52:21;8.10;99.90
6538;DHT22;3302;52.508;13.454;2024-02-26T09:54:49;8.20;99.90
6538;DHT22;3302;52.508;13.454;2024-02-26T09:57:16;8.40;99.90
6538;DHT22;3302;52.508;13.454;2024-02-26T09:59:43;8.40;99.90
6538;DHT22;3302;52.508;13.454;2024-02-26T10:02:12;8.50;99.90
6538;DHT22;3302;52.508;13.454;2024-02-26T10:04:40;8.50;99.90
6538;DHT22;3302;52.508;13.454;2024-02-26T10:07:13;8.60;99.90
6538;DHT22;3302;52.508;13.454;2024-02-26T10:09:39;8.60;99.90
6538;DHT22;3302;52.508;13.454;2024-02-26T10:12:08;8.60;99.90
6538;DHT22;3302;52.508;13.454;2024-02-26T10:14:34;8.80;99.90
6538;DHT22;3302;52.508;13.454;2024-02-26T10:17:00;8.80;99.90
6538;DHT22;3302;52.508;13.454;2024-02-26T10:19:30;9.00;99.90
6538;DHT22;3302;52.508;13.454;2024-02-26T10:21:56;9.10;99.50
6538;DHT22;3302;52.508;13.454;2024-02-26T10:24:24;9.20;99.50
6538;DHT22;3302;52.508;13.454;2024-02-26T10:26:54;9.20;99.00
6538;DHT22;3302;52.508;13.454;2024-02-26T10:29:21;9.20;99.00
6538;DHT22;3302;52.508;13.454;2024-02-26T10:31:47;9.30;98.70
6538;DHT22;3302;52.508;13.454;2024-02-26T10:34:15;9.30;98.80
6538;DHT22;3302;52.508;13.454;2024-02-26T10:36:42;9.30;98.90
6538;DHT22;3302;52.508;13.454;2024-02-26T10:39:08;9.40;98.70
6538;DHT22;3302;52.508;13.454;2024-02-26T10:41:34;9.60;98.40
6538;DHT22;3302;52.508;13.454;2024-02-26T10:44:00;9.70;98.10
6538;DHT22;3302;52.508;13.454;2024-02-26T10:46:26;9.60;98.00
6538;DHT22;3302;52.508;13.454;2024-02-26T10:48:53;9.60;98.00
6538;DHT22;3302;52.508;13.454;2024-02-26T10:51:24;9.70;97.40
6538;DHT22;3302;52.508;13.454;2024-02-26T10:53:57;9.90;97.10
6538;DHT22;3302;52.508;13.454;2024-02-26T10:56:25;10.00;96.00
6538;DHT22;3302;52.508;13.454;2024-02-26T10:58:53;10.00;95.90
6538;DHT22;3302;52.508;13.454;2024-02-26T11:01:20;10.00;96.20
6538;DHT22;3302;52.508;13.454;2024-02-26T11:03:48;10.20;96.00
6538;DHT22;3302;52.508;13.454;2024-02-26T11:06:15;10.20;95.40
6538;DHT22;3302;52.508;13.454;2024-02-26T11:08:42;10.10;95.50
6538;DHT22;3302;52.508;13.454;2024-02-26T11:11:08;10.30;95.10
6538;DHT22;3302;52.508;13.454;2024-02-26T11:13:36;10.30;94.90
6538;DHT22;3302;52.508;13.454;2024-02-26T11:16:05;10.40;94.40
6538;DHT22;3302;52.508;13.454;2024-02-26T11:18:32;10.40;94.50
6538;DHT22;3302;52.508;13.454;2024-02-26T11:20:59;10.40;94.30
6538;DHT22;3302;52.508;13.454;2024-02-26T11:23:26;10.50;94.00
6538;DHT22;3302;52.508;13.454;2024-02-26T11:25:53;10.60;93.90
6538;DHT22;3302;52.508;13.454;2024-02-26T11:28:21;10.60;93.30
6538;DHT22;3302;52.508;13.454;2024-02-26T11:30:48;10.60;92.70
6538;DHT22;3302;52.508;13.454;2024-02-26T11:33:15;10.60;92.60
6538;DHT22;3302;52.508;13.454;2024-02-26T11:35:41;10.60;92.70
6538;DHT22;3302;52.508;13.454;2024-02-26T11:38:07;10.60;92.50
6538;DHT22;3302;52.508;13.454;2024-02-26T11:40:38;10.70;92.40
6538;DHT22;3302;52.508;13.454;2024-02-26T11:43:05;10.80;92.30
6538;DHT22;3302;52.508;13.454;2024-02-26T11:48:19;10.90;91.90
6538;DHT22;3302;52.508;13.454;2024-02-26T11:50:49;10.70;91.50
6538;DHT22;3302;52.508;13.454;2024-02-26T11:58:40;11.10;91.30
6538;DHT22;3302;52.508;13.454;2024-02-26T12:01:35;11.20;91.80
6538;DHT22;3302;52.508;13.454;2024-02-26T12:03:54;11.00;92.10
6538;DHT22;3302;52.508;13.454;2024-02-26T12:06:20;11.10;92.00
6538;DHT22;3302;52.508;13.454;2024-02-26T12:08:46;11.20;91.90
6538;DHT22;3302;52.508;13.454;2024-02-26T12:11:15;11.20;91.70
6538;DHT22;3302;52.508;13.454;2024-02-26T12:13:42;11.30;91.20
6538;DHT22;3302;52.508;13.454;2024-02-26T12:16:08;11.30;91.10
6538;DHT22;3302;52.508;13.454;2024-02-26T12:18:34;11.30;91.80
6538;DHT22;3302;52.508;13.454;2024-02-26T12:21:01;11.30;91.60
6538;DHT22;3302;52.508;13.454;2024-02-26T12:23:27;11.30;91.60
6538;DHT22;3302;52.508;13.454;2024-02-26T12:25:58;11.30;91.90
6538;DHT22;3302;52.508;13.454;2024-02-26T12:28:30;11.40;91.50
6538;DHT22;3302;52.508;13.454;2024-02-26T12:30:56;11.40;91.40
6538;DHT22;3302;52.508;13.454;2024-02-26T12:33:25;11.40;91.10
6538;DHT22;3302;52.508;13.454;2024-02-26T12:35:53;11.40;91.40
6538;DHT22;3302;52.508;13.454;2024-02-26T12:38:18;11.50;91.40
6538;DHT22;3302;52.508;13.454;2024-02-26T12:40:45;11.40;91.10
6538;DHT22;3302;52.508;13.454;2024-02-26T12:43:11;11.50;91.00
6538;DHT22;3302;52.508;13.454;2024-02-26T12:45:42;11.60;91.00
6538;DHT22;3302;52.508;13.454;2024-02-26T12:48:09;11.60;91.40
6538;DHT22;3302;52.508;13.454;2024-02-26T12:50:36;11.60;91.40
6538;DHT22;3302;52.508;13.454;2024-02-26T12:53:02;11.60;90.70
6538;DHT22;3302;52.508;13.454;2024-02-26T12:55:27;11.60;90.30
6538;DHT22;3302;52.508;13.454;2024-02-26T12:57:53;11.60;90.60
6538;DHT22;3302;52.508;13.454;2024-02-26T13:00:25;11.60;89.50
6538;DHT22;3302;52.508;13.454;2024-02-26T13:02:52;11.60;89.90
6538;DHT22;3302;52.508;13.454;2024-02-26T13:05:21;11.60;88.40
6538;DHT22;3302;52.508;13.454;2024-02-26T13:07:48;11.70;88.50
6538;DHT22;3302;52.508;13.454;2024-02-26T13:10:14;11.70;88.10
6538;DHT22;3302;52.508;13.454;2024-02-26T13:12:48;11.70;87.80
6538;DHT22;3302;52.508;13.454;2024-02-26T13:15:19;11.60;87.10
6538;DHT22;3302;52.508;13.454;2024-02-26T13:17:46;11.60;85.80
6538;DHT22;3302;52.508;13.454;2024-02-26T13:20:13;11.60;85.60
6538;DHT22;3302;52.508;13.454;2024-02-26T13:22:40;11.60;84.80
6538;DHT22;3302;52.508;13.454;2024-02-26T13:25:06;11.60;83.70
6538;DHT22;3302;52.508;13.454;2024-02-26T13:27:33;11.50;84.50
6538;DHT22;3302;52.508;13.454;2024-02-26T13:30:12;11.60;84.70
6538;DHT22;3302;52.508;13.454;2024-02-26T13:32:39;11.70;84.40
6538;DHT22;3302;52.508;13.454;2024-02-26T13:35:09;11.60;82.00
6538;DHT22;3302;52.508;13.454;2024-02-26T13:37:35;11.60;82.30
6538;DHT22;3302;52.508;13.454;2024-02-26T13:40:08;11.60;83.50
6538;DHT22;3302;52.508;13.454;2024-02-26T13:42:35;11.50;84.10
6538;DHT22;3302;52.508;13.454;2024-02-26T13:45:02;11.60;83.70
6538;DHT22;3302;52.508;13.454;2024-02-26T13:47:28;11.50;83.70
6538;DHT22;3302;52.508;13.454;2024-02-26T13:49:54;11.70;83.90
6538;DHT22;3302;52.508;13.454;2024-02-26T13:52:20;11.60;83.20
6538;DHT22;3302;52.508;13.454;2024-02-26T13:54:46;11.60;83.80
6538;DHT22;3302;52.508;13.454;2024-02-26T13:57:12;11.50;83.60
6538;DHT22;3302;52.508;13.454;2024-02-26T13:59:38;11.60;84.30
6538;DHT22;3302;52.508;13.454;2024-02-26T14:02:09;11.60;83.30
6538;DHT22;3302;52.508;13.454;2024-02-26T14:04:35;11.60;83.00
6538;DHT22;3302;52.508;13.454;2024-02-26T14:07:01;11.40;83.70
6538;DHT22;3302;52.508;13.454;2024-02-26T14:09:27;11.50;83.10
6538;DHT22;3302;52.508;13.454;2024-02-26T14:11:53;11.50;83.10
6538;DHT22;3302;52.508;13.454;2024-02-26T14:14:18;11.40;82.90
6538;DHT22;3302;52.508;13.454;2024-02-26T14:16:44;11.30;83.40
6538;DHT22;3302;52.508;13.454;2024-02-26T14:19:10;11.20;84.00
6538;DHT22;3302;52.508;13.454;2024-02-26T14:21:37;11.30;84.30
6538;DHT22;3302;52.508;13.454;2024-02-26T14:24:03;11.20;84.30
6538;DHT22;3302;52.508;13.454;2024-02-26T14:26:29;11.20;84.60
6538;DHT22;3302;52.508;13.454;2024-02-26T14:28:55;11.10;84.30
6538;DHT22;3302;52.508;13.454;2024-02-26T14:31:21;11.20;84.70
6538;DHT22;3302;52.508;13.454;2024-02-26T14:33:47;11.10;84.80
6538;DHT22;3302;52.508;13.454;2024-02-26T14:36:14;11.10;84.70
6538;DHT22;3302;52.508;13.454;2024-02-26T14:38:40;11.10;84.50
6538;DHT22;3302;52.508;13.454;2024-02-26T14:41:06;11.10;84.50
6538;DHT22;3302;52.508;13.454;2024-02-26T14:43:32;11.10;84.50
6538;DHT22;3302;52.508;13.454;2024-02-26T14:45:58;11.00;85.30
6538;DHT22;3302;52.508;13.454;2024-02-26T14:48:25;11.00;85.80
6538;DHT22;3302;52.508;13.454;2024-02-26T14:50:50;11.00;86.30
6538;DHT22;3302;52.508;13.454;2024-02-26T14:53:17;11.00;85.80
6538;DHT22;3302;52.508;13.454;2024-02-26T14:55:43;11.00;85.90
6538;DHT22;3302;52.508;13.454;2024-02-26T14:58:09;10.90;86.40
6538;DHT22;3302;52.508;13.454;2024-02-26T15:00:39;11.00;86.40
6538;DHT22;3302;52.508;13.454;2024-02-26T15:03:05;11.00;86.70
6538;DHT22;3302;52.508;13.454;2024-02-26T15:05:32;11.00;86.90
6538;DHT22;3302;52.508;13.454;2024-02-26T15:07:58;11.00;86.60
6538;DHT22;3302;52.508;13.454;2024-02-26T15:10:28;11.00;86.60
6538;DHT22;3302;52.508;13.454;2024-02-26T15:12:54;10.90;87.20
6538;DHT22;3302;52.508;13.454;2024-02-26T15:15:21;10.80;86.50
6538;DHT22;3302;52.508;13.454;2024-02-26T15:17:47;10.90;86.90
6538;DHT22;3302;52.508;13.454;2024-02-26T15:20:15;10.80;87.20
6538;DHT22;3302;52.508;13.454;2024-02-26T15:22:41;10.90;87.50
6538;DHT22;3302;52.508;13.454;2024-02-26T15:25:07;10.80;87.50
6538;DHT22;3302;52.508;13.454;2024-02-26T15:27:33;10.70;87.90
6538;DHT22;3302;52.508;13.454;2024-02-26T15:30:00;10.70;87.90
6538;DHT22;3302;52.508;13.454;2024-02-26T15:32:26;10.70;88.10
6538;DHT22;3302;52.508;13.454;2024-02-26T15:34:53;10.70;88.60
6538;DHT22;3302;52.508;13.454;2024-02-26T15:37:19;10.60;89.10
6538;DHT22;3302;52.508;13.454;2024-02-26T15:39:45;10.60;88.90
6538;DHT22;3302;52.508;13.454;2024-02-26T15:42:12;10.60;89.20
6538;DHT22;3302;52.508;13.454;2024-02-26T15:44:38;10.50;89.60
6538;DHT22;3302;52.508;13.454;2024-02-26T15:47:05;10.60;90.00
6538;DHT22;3302;52.508;13.454;2024-02-26T15:49:31;10.50;90.10
6538;DHT22;3302;52.508;13.454;2024-02-26T15:51:57;10.50;90.10
6538;DHT22;3302;52.508;13.454;2024-02-26T15:54:23;10.40;90.30
6538;DHT22;3302;52.508;13.454;2024-02-26T15:56:50;10.40;90.70
6538;DHT22;3302;52.508;13.454;2024-02-26T15:59:16;10.40;90.60
6538;DHT22;3302;52.508;13.454;2024-02-26T16:01:42;10.30;90.90